TimeCDT,TemperatureF,Dew PointF,Humidity,Sea Level PressureIn,VisibilityMPH,Wind Direction,Wind SpeedMPH,Gust SpeedMPH,PrecipitationIn,Events,Conditions,WindDirDegrees,DateUTC
12:15 AM,32.0,24.6,74,30.04,10.0,ENE,3.5,-,N/A,,Clear,70,2013-03-22 05:15:00
12:35 AM,31.8,25.2,76,30.04,10.0,ENE,3.5,-,N/A,,Clear,70,2013-03-22 05:35:00
12:55 AM,32.0,24.8,75,30.05,10.0,Calm,Calm,-,N/A,,Clear,0,2013-03-22 05:55:00
1:15 AM,31.6,25.0,76,30.04,10.0,East,4.6,-,N/A,,Clear,100,2013-03-22 06:15:00
1:35 AM,32.0,25.5,77,30.04,10.0,East,4.6,-,N/A,,Clear,90,2013-03-22 06:35:00
1:55 AM,32.0,24.6,74,30.05,10.0,East,4.6,-,N/A,,Clear,100,2013-03-22 06:55:00
2:15 AM,32.0,24.8,75,30.04,10.0,East,5.8,-,N/A,,Clear,100,2013-03-22 07:15:00
2:35 AM,32.0,24.6,74,30.04,10.0,East,4.6,-,N/A,,Clear,100,2013-03-22 07:35:00
2:55 AM,32.0,25.3,76,30.04,10.0,Calm,Calm,-,N/A,,Clear,0,2013-03-22 07:55:00
3:15 AM,32.0,25.2,76,30.04,10.0,Calm,Calm,-,N/A,,Clear,0,2013-03-22 08:15:00
3:35 AM,32.0,24.6,74,30.04,10.0,East,3.5,-,N/A,,Clear,100,2013-03-22 08:35:00
3:55 AM,32.0,24.4,74,30.03,10.0,ESE,3.5,-,N/A,,Clear,120,2013-03-22 08:55:00
4:15 AM,32.0,24.3,73,30.04,10.0,East,3.5,-,N/A,,Clear,90,2013-03-22 09:15:00
4:35 AM,32.0,25.5,77,30.03,10.0,Calm,Calm,-,N/A,,Scattered Clouds,0,2013-03-22 09:35:00
4:55 AM,32.0,24.1,73,30.03,10.0,ENE,4.6,-,N/A,,Scattered Clouds,70,2013-03-22 09:55:00
5:15 AM,31.6,23.4,71,30.04,10.0,ENE,4.6,-,N/A,,Scattered Clouds,60,2013-03-22 10:15:00
5:35 AM,30.9,23.5,74,30.03,10.0,ENE,6.9,-,N/A,,Clear,60,2013-03-22 10:35:00
5:55 AM,31.3,23.4,72,30.04,10.0,East,5.8,-,N/A,,Mostly Cloudy,80,2013-03-22 10:55:00
6:15 AM,31.1,23.9,75,30.05,10.0,East,4.6,-,N/A,,Mostly Cloudy,80,2013-03-22 11:15:00
6:35 AM,30.4,24.3,78,30.05,10.0,ENE,4.6,-,N/A,,Overcast,60,2013-03-22 11:35:00
6:55 AM,30.7,23.2,74,30.06,10.0,ENE,4.6,-,N/A,,Overcast,60,2013-03-22 11:55:00
7:15 AM,32.0,23.7,71,30.07,10.0,East,3.5,-,N/A,,Overcast,90,2013-03-22 12:15:00
7:35 AM,32.0,23.4,70,30.06,10.0,East,6.9,-,N/A,,Overcast,80,2013-03-22 12:35:00
7:55 AM,32.2,21.6,65,30.06,10.0,ENE,9.2,-,N/A,,Overcast,70,2013-03-22 12:55:00
8:15 AM,32.9,22.6,66,30.07,10.0,East,6.9,-,N/A,,Overcast,80,2013-03-22 13:15:00
8:35 AM,33.3,22.6,65,30.07,10.0,East,5.8,-,N/A,,Overcast,90,2013-03-22 13:35:00
8:55 AM,34.0,21.7,61,30.07,10.0,East,8.1,-,N/A,,Overcast,80,2013-03-22 13:55:00
9:15 AM,34.7,21.9,60,30.07,10.0,East,6.9,-,N/A,,Overcast,80,2013-03-22 14:15:00
9:35 AM,34.7,22.1,60,30.07,10.0,East,4.6,-,N/A,,Overcast,100,2013-03-22 14:35:00
9:55 AM,34.9,23.0,62,30.07,10.0,ESE,8.1,-,N/A,,Overcast,120,2013-03-22 14:55:00
10:15 AM,35.2,22.3,59,30.07,10.0,East,8.1,-,N/A,,Overcast,100,2013-03-22 15:15:00
10:35 AM,35.6,21.9,58,30.06,10.0,East,9.2,-,N/A,,Overcast,100,2013-03-22 15:35:00
10:55 AM,36.0,21.2,55,30.06,10.0,East,11.5,-,N/A,,Overcast,100,2013-03-22 15:55:00
11:15 AM,36.7,22.3,56,30.07,10.0,ESE,8.1,-,N/A,,Overcast,110,2013-03-22 16:15:00
11:35 AM,37.4,23.0,56,30.07,10.0,East,6.9,-,N/A,,Overcast,100,2013-03-22 16:35:00
11:55 AM,38.1,23.0,55,30.07,10.0,East,8.1,-,N/A,,Overcast,90,2013-03-22 16:55:00
12:15 PM,38.5,21.9,51,30.06,10.0,East,8.1,-,N/A,,Overcast,100,2013-03-22 17:15:00
12:35 PM,38.7,20.7,48,30.06,10.0,ESE,6.9,-,N/A,,Overcast,120,2013-03-22 17:35:00
12:55 PM,39.4,20.7,47,30.06,10.0,East,8.1,-,N/A,,Overcast,100,2013-03-22 17:55:00
1:15 PM,40.6,21.6,47,30.05,10.0,East,9.2,-,N/A,,Overcast,90,2013-03-22 18:15:00
1:35 PM,40.5,20.3,45,30.04,10.0,ESE,8.1,-,N/A,,Overcast,110,2013-03-22 18:35:00
1:55 PM,40.5,22.3,48,30.03,10.0,ESE,6.9,-,N/A,,Overcast,110,2013-03-22 18:55:00
2:15 PM,40.3,20.3,45,30.03,10.0,SE,8.1,-,N/A,,Overcast,130,2013-03-22 19:15:00
2:35 PM,40.6,20.8,45,30.02,10.0,ESE,6.9,-,N/A,,Overcast,120,2013-03-22 19:35:00
2:55 PM,41.0,23.0,49,30.02,10.0,SE,9.2,-,N/A,,Overcast,130,2013-03-22 19:55:00
3:15 PM,40.8,22.3,48,30.01,10.0,ESE,6.9,-,N/A,,Overcast,110,2013-03-22 20:15:00
3:35 PM,41.2,20.8,44,30.01,10.0,East,8.1,-,N/A,,Overcast,100,2013-03-22 20:35:00
3:55 PM,41.0,21.0,45,30.01,10.0,ESE,5.8,-,N/A,,Overcast,110,2013-03-22 20:55:00
4:15 PM,41.4,21.0,44,30.01,10.0,East,5.8,-,N/A,,Overcast,90,2013-03-22 21:15:00
4:35 PM,41.2,21.0,45,30.01,10.0,East,5.8,-,N/A,,Overcast,100,2013-03-22 21:35:00
4:55 PM,41.4,21.9,46,30.02,10.0,East,4.6,-,N/A,,Overcast,90,2013-03-22 21:55:00
5:15 PM,41.7,22.3,46,30.01,10.0,ENE,6.9,-,N/A,,Overcast,60,2013-03-22 22:15:00
5:35 PM,41.5,21.6,45,30.02,10.0,East,3.5,-,N/A,,Overcast,90,2013-03-22 22:35:00
5:55 PM,41.4,25.0,52,30.02,10.0,ENE,4.6,-,N/A,,Overcast,70,2013-03-22 22:55:00
6:15 PM,40.6,25.5,55,30.02,10.0,ENE,5.8,-,N/A,,Overcast,60,2013-03-22 23:15:00
6:35 PM,40.3,25.5,56,30.02,10.0,ENE,5.8,-,N/A,,Overcast,60,2013-03-22 23:35:00
6:55 PM,40.1,26.1,57,30.02,10.0,ENE,5.8,-,N/A,,Overcast,70,2013-03-22 23:55:00
7:15 PM,40.1,27.1,60,30.02,10.0,ENE,5.8,-,N/A,,Overcast,70,2013-03-23 00:15:00
7:35 PM,39.9,27.1,60,30.02,10.0,ENE,4.6,-,N/A,,Overcast,70,2013-03-23 00:35:00
7:55 PM,40.1,27.3,60,30.02,10.0,East,3.5,-,N/A,,Overcast,80,2013-03-23 00:55:00
8:15 PM,39.4,28.8,66,30.03,10.0,Calm,Calm,-,N/A,,Overcast,0,2013-03-23 01:15:00
8:35 PM,39.7,29.1,66,30.03,10.0,ENE,3.5,-,N/A,,Overcast,70,2013-03-23 01:35:00
8:55 PM,40.1,29.5,66,30.03,10.0,East,3.5,-,N/A,,Overcast,80,2013-03-23 01:55:00
9:15 PM,39.2,29.7,69,30.03,10.0,ENE,3.5,-,N/A,,Overcast,70,2013-03-23 02:15:00
9:35 PM,39.2,28.8,66,30.03,10.0,ENE,3.5,-,N/A,,Overcast,60,2013-03-23 02:35:00
9:55 PM,39.2,30.0,70,30.03,10.0,NE,3.5,-,N/A,,Overcast,50,2013-03-23 02:55:00
10:15 PM,38.8,30.2,71,30.03,10.0,NNE,4.6,-,N/A,,Overcast,30,2013-03-23 03:15:00
10:35 PM,39.2,29.1,67,30.03,10.0,NNE,3.5,-,N/A,,Overcast,20,2013-03-23 03:35:00
10:55 PM,39.2,29.1,67,30.03,10.0,NNE,4.6,-,N/A,,Overcast,30,2013-03-23 03:55:00
11:15 PM,38.8,30.9,73,30.03,10.0,NE,4.6,-,N/A,,Overcast,40,2013-03-23 04:15:00
11:35 PM,38.7,30.4,72,30.03,10.0,NNE,3.5,-,N/A,,Overcast,30,2013-03-23 04:35:00
11:55 PM,38.5,30.9,74,30.03,10.0,NNE,3.5,-,N/A,,Overcast,30,2013-03-23 04:55:00